createdAt,value
2023-03-21T00:00:40.944Z,37.20
2023-03-21T00:03:20.688Z,40.75
2023-03-21T00:05:51.800Z,32.42
2023-03-21T00:08:18.794Z,31.38
2023-03-21T00:10:46.027Z,32.03
2023-03-21T00:13:13.487Z,30.10
2023-03-21T00:16:03.994Z,26.80
2023-03-21T00:18:32.905Z,25.95
2023-03-21T00:21:35.315Z,21.92
2023-03-21T00:23:51.065Z,21.98
2023-03-21T00:26:18.332Z,18.33
2023-03-21T00:28:45.082Z,22.55
2023-03-21T00:31:12.156Z,19.70
2023-03-21T00:33:39.549Z,18.20
2023-03-21T00:36:08.278Z,17.95
2023-03-21T00:38:36.193Z,17.38
2023-03-21T00:41:14.934Z,17.45
2023-03-21T00:43:46.349Z,16.70
2023-03-21T00:46:13.413Z,17.88
2023-03-21T00:48:40.519Z,16.55
2023-03-21T00:51:26.010Z,18.95
2023-03-21T00:53:54.567Z,17.23
2023-03-21T00:56:21.643Z,15.70
2023-03-21T00:58:48.540Z,17.00
2023-03-21T01:01:15.668Z,16.73
2023-03-21T01:03:50.931Z,14.43
2023-03-21T01:06:19.519Z,16.42
2023-03-21T01:08:52.791Z,15.63
2023-03-21T01:11:25.330Z,13.13
2023-03-21T01:13:57.834Z,15.05
2023-03-21T01:16:29.089Z,15.02
2023-03-21T01:18:56.341Z,13.13
2023-03-21T01:21:23.450Z,13.63
2023-03-21T01:23:50.304Z,14.07
2023-03-21T01:26:17.411Z,13.73
2023-03-21T01:28:44.538Z,13.52
2023-03-21T01:31:16.128Z,13.13
2023-03-21T01:33:43.265Z,13.95
2023-03-21T01:36:16.029Z,16.00
2023-03-21T01:38:43.339Z,14.45
2023-03-21T01:41:20.098Z,12.32
2023-03-21T01:43:47.457Z,15.40
2023-03-21T01:46:51.472Z,14.18
2023-03-21T01:52:06.555Z,16.90
2023-03-21T01:54:39.126Z,14.13
2023-03-21T01:57:17.683Z,13.60
2023-03-21T01:59:46.703Z,12.02
2023-03-21T02:02:37.619Z,13.18
2023-03-21T02:05:04.646Z,11.10
2023-03-21T02:07:35.723Z,12.40
2023-03-21T02:10:04.927Z,12.15
2023-03-21T02:12:32.009Z,11.60
2023-03-21T02:14:58.800Z,11.45
2023-03-21T02:17:44.771Z,11.43
2023-03-21T02:23:36.896Z,10.82
2023-03-21T02:27:04.088Z,12.30
2023-03-21T02:29:37.640Z,10.93
2023-03-21T02:32:18.089Z,11.35
2023-03-21T02:35:08.006Z,12.05
2023-03-21T02:37:44.650Z,9.35
2023-03-21T02:40:40.035Z,13.88
2023-03-21T02:43:23.638Z,9.80
2023-03-21T02:45:52.620Z,10.98
2023-03-21T02:48:44.523Z,13.65
2023-03-21T02:51:17.475Z,9.95
2023-03-21T02:53:50.506Z,9.65
2023-03-21T02:56:20.089Z,12.00
2023-03-21T02:58:46.870Z,13.52
2023-03-21T03:01:13.966Z,13.07
2023-03-21T03:03:40.756Z,8.70
2023-03-21T03:06:13.590Z,10.15
2023-03-21T03:09:01.764Z,9.50
2023-03-21T03:11:32.251Z,10.88
2023-03-21T03:14:49.874Z,10.95
2023-03-21T03:17:59.574Z,11.32
2023-03-21T03:20:50.834Z,9.32
2023-03-21T03:23:19.881Z,10.40
2023-03-21T03:25:58.278Z,9.88
2023-03-21T03:28:27.455Z,8.20
2023-03-21T03:31:07.384Z,10.63
2023-03-21T03:33:37.136Z,9.15
2023-03-21T03:36:06.574Z,8.07
2023-03-21T03:38:33.951Z,9.75
2023-03-21T03:41:09.118Z,10.60
2023-03-21T03:43:44.768Z,9.48
2023-03-21T03:48:48.180Z,9.18
2023-03-21T03:51:30.179Z,10.90
2023-03-21T03:54:05.470Z,7.55
2023-03-21T03:56:33.470Z,8.80
2023-03-21T03:59:02.186Z,9.77
2023-03-21T04:01:29.190Z,10.63
2023-03-21T04:04:10.384Z,9.40
2023-03-21T04:06:39.395Z,11.55
2023-03-21T04:09:19.267Z,12.48
2023-03-21T04:11:47.994Z,11.52
2023-03-21T04:14:15.350Z,11.65
2023-03-21T04:16:42.202Z,12.13
2023-03-21T04:19:09.429Z,12.77
2023-03-21T04:21:36.642Z,13.30
2023-03-21T04:24:03.970Z,10.98
2023-03-21T04:26:33.420Z,12.10
2023-03-21T04:29:03.506Z,12.27
2023-03-21T04:31:34.393Z,11.93
2023-03-21T04:34:02.471Z,15.43
2023-03-21T04:36:39.016Z,14.68
2023-03-21T04:39:12.300Z,16.45
2023-03-21T04:41:43.562Z,14.43
2023-03-21T04:44:11.784Z,13.90
2023-03-21T04:46:38.729Z,13.45
2023-03-21T04:49:07.075Z,14.38
2023-03-21T04:51:34.666Z,15.07
2023-03-21T04:54:01.755Z,12.50
2023-03-21T04:56:36.426Z,13.93
2023-03-21T04:59:07.439Z,13.98
2023-03-21T05:01:34.202Z,15.85
2023-03-21T05:04:02.252Z,13.52
2023-03-21T05:06:29.530Z,14.18
2023-03-21T05:09:00.207Z,14.57
2023-03-21T05:11:33.015Z,14.45
2023-03-21T05:14:00.201Z,13.88
2023-03-21T05:16:30.525Z,14.65
2023-03-21T05:18:59.198Z,14.57
2023-03-21T05:21:29.471Z,12.48
2023-03-21T05:23:58.381Z,14.23
2023-03-21T05:26:25.379Z,15.70
2023-03-21T05:28:52.576Z,14.15
2023-03-21T05:31:19.444Z,14.00
2023-03-21T05:33:46.682Z,15.57
2023-03-21T05:36:13.742Z,14.52
2023-03-21T05:38:45.487Z,13.57
2023-03-21T05:41:17.621Z,12.80
2023-03-21T05:43:45.962Z,14.10
2023-03-21T05:46:12.880Z,14.02
2023-03-21T05:48:40.013Z,14.30
2023-03-21T05:51:06.836Z,13.15
2023-03-21T05:53:33.893Z,15.45
2023-03-21T05:56:00.810Z,13.55
2023-03-21T05:58:28.021Z,14.50
2023-03-21T06:00:54.862Z,14.32
2023-03-21T06:03:22.184Z,16.20
2023-03-21T06:05:49.130Z,13.63
2023-03-21T06:08:16.599Z,16.77
2023-03-21T06:10:43.374Z,12.82
2023-03-21T06:13:10.562Z,14.88
2023-03-21T06:15:37.520Z,13.13
2023-03-21T06:18:04.820Z,13.13
2023-03-21T06:20:31.599Z,14.15
2023-03-21T06:22:58.663Z,14.90
2023-03-21T06:25:25.652Z,17.52
2023-03-21T06:27:52.717Z,14.77
2023-03-21T06:30:19.726Z,16.70
2023-03-21T06:32:46.809Z,15.77
2023-03-21T06:35:13.548Z,16.95
2023-03-21T06:37:40.726Z,18.35
2023-03-21T06:40:09.517Z,18.13
2023-03-21T06:42:36.647Z,21.08
2023-03-21T06:45:03.686Z,18.65
2023-03-21T06:47:30.788Z,21.83
2023-03-21T06:49:57.556Z,17.27
2023-03-21T06:52:24.610Z,20.02
2023-03-21T06:54:51.475Z,17.00
2023-03-21T06:57:20.785Z,15.00
2023-03-21T06:59:47.643Z,19.42
2023-03-21T07:02:15.146Z,18.98
2023-03-21T07:04:41.985Z,16.70
2023-03-21T07:07:09.114Z,18.65
2023-03-21T07:09:36.005Z,17.55
2023-03-21T07:12:03.107Z,18.52
2023-03-21T07:14:32.052Z,18.88
2023-03-21T07:16:59.158Z,21.73
2023-03-21T07:19:26.486Z,18.38
2023-03-21T07:21:54.713Z,19.23
2023-03-21T07:24:21.458Z,15.75
2023-03-21T07:26:48.624Z,16.85
2023-03-21T07:29:17.534Z,19.63
2023-03-21T07:31:44.630Z,18.25
2023-03-21T07:34:11.680Z,19.92
2023-03-21T07:36:38.807Z,20.05
2023-03-21T07:39:06.390Z,17.15
2023-03-21T07:41:33.652Z,16.67
2023-03-21T07:44:00.542Z,20.13
2023-03-21T07:46:27.689Z,16.80
2023-03-21T07:48:54.447Z,23.67
2023-03-21T07:51:21.507Z,17.02
2023-03-21T07:53:48.807Z,15.40
2023-03-21T07:56:16.114Z,17.45
2023-03-21T07:58:42.931Z,17.20
2023-03-21T08:01:10.013Z,17.33
2023-03-21T08:03:38.108Z,17.52
2023-03-21T08:06:05.734Z,16.77
2023-03-21T08:08:33.417Z,21.48
2023-03-21T08:11:00.777Z,16.35
2023-03-21T08:13:27.785Z,14.02
2023-03-21T08:15:54.934Z,20.05
2023-03-21T08:18:21.749Z,16.58
2023-03-21T08:20:55.611Z,19.20
2023-03-21T08:23:22.475Z,14.60
2023-03-21T08:25:53.727Z,16.98
2023-03-21T08:28:20.810Z,14.95
2023-03-21T08:30:48.308Z,17.05
2023-03-21T08:33:15.316Z,16.90
2023-03-21T08:35:42.793Z,15.30
2023-03-21T08:38:10.113Z,16.02
2023-03-21T08:40:37.209Z,16.25
2023-03-21T08:43:04.086Z,16.38
2023-03-21T08:45:31.192Z,18.48
2023-03-21T08:47:58.222Z,16.73
2023-03-21T08:50:26.561Z,16.20
2023-03-21T08:52:53.601Z,19.38
2023-03-21T08:55:20.456Z,16.17
2023-03-21T08:57:47.611Z,14.85
2023-03-21T09:00:17.262Z,18.35
2023-03-21T09:02:45.082Z,17.58
2023-03-21T09:05:12.201Z,16.17
2023-03-21T09:07:40.368Z,20.52
2023-03-21T09:10:20.267Z,19.77
2023-03-21T09:12:52.733Z,16.92
2023-03-21T09:15:21.951Z,18.08
2023-03-21T09:17:50.317Z,16.05
2023-03-21T09:20:20.948Z,16.13
2023-03-21T09:22:48.854Z,16.15
2023-03-21T09:25:16.248Z,17.23
2023-03-21T09:27:45.670Z,16.65
2023-03-21T09:30:14.060Z,18.23
2023-03-21T09:32:42.054Z,19.48
2023-03-21T09:35:11.386Z,19.05
2023-03-21T09:37:42.326Z,17.42
2023-03-21T09:40:19.586Z,18.10
2023-03-21T09:42:56.995Z,19.25
2023-03-21T09:45:48.045Z,18.50
2023-03-21T09:48:26.464Z,22.33
2023-03-21T09:50:53.788Z,17.45
2023-03-21T09:53:24.583Z,18.60
2023-03-21T09:55:52.036Z,18.48
2023-03-21T09:58:59.360Z,18.58
2023-03-21T10:01:29.860Z,18.63
2023-03-21T10:03:57.670Z,18.13
2023-03-21T10:06:28.764Z,19.85
2023-03-21T10:09:02.475Z,16.95
2023-03-21T10:11:30.980Z,19.15
2023-03-21T10:14:01.287Z,18.73
2023-03-21T10:16:30.685Z,20.90
2023-03-21T10:18:59.744Z,17.73
2023-03-21T10:21:56.385Z,19.20
2023-03-21T10:24:17.445Z,17.58
2023-03-21T10:26:44.651Z,18.85
2023-03-21T10:29:13.264Z,18.05
2023-03-21T10:31:40.182Z,19.92
2023-03-21T10:34:18.735Z,20.95
2023-03-21T10:36:45.878Z,22.02
2023-03-21T10:39:27.467Z,18.35
2023-03-21T10:41:54.441Z,20.20
2023-03-21T10:44:22.050Z,19.15
2023-03-21T10:46:56.572Z,20.92
2023-03-21T10:49:25.468Z,21.10
2023-03-21T10:51:54.341Z,16.85
2023-03-21T10:54:22.428Z,19.83
2023-03-21T10:56:55.292Z,18.80
2023-03-21T10:59:22.913Z,18.10
2023-03-21T11:01:53.106Z,23.27
2023-03-21T11:04:29.821Z,18.42
2023-03-21T11:07:02.964Z,21.27
2023-03-21T11:09:50.077Z,20.42
2023-03-21T11:12:29.536Z,18.80
2023-03-21T11:14:57.418Z,17.48
2023-03-21T11:17:28.002Z,19.45
2023-03-21T11:20:00.204Z,21.13
2023-03-21T11:22:31.380Z,18.58
2023-03-21T11:25:01.962Z,17.65
2023-03-21T11:27:30.126Z,20.77
2023-03-21T11:29:58.298Z,21.23
2023-03-21T11:32:26.629Z,20.77
2023-03-21T11:35:19.753Z,19.83
2023-03-21T11:37:51.096Z,20.80
2023-03-21T11:40:21.379Z,21.85
2023-03-21T11:42:54.973Z,22.88
2023-03-21T11:45:22.993Z,22.33
2023-03-21T11:47:50.705Z,23.83
2023-03-21T11:50:21.807Z,22.83
2023-03-21T11:52:51.460Z,22.40
2023-03-21T11:55:41.885Z,25.88
2023-03-21T11:58:27.324Z,22.80
2023-03-21T12:01:14.831Z,22.52
2023-03-21T12:04:18.404Z,19.48
2023-03-21T12:06:47.740Z,24.58
2023-03-21T12:09:21.974Z,20.70
2023-03-21T12:11:58.574Z,21.35
2023-03-21T12:14:39.995Z,25.92
2023-03-21T12:17:10.418Z,24.20
2023-03-21T12:20:12.163Z,22.13
2023-03-21T12:22:42.435Z,23.35
2023-03-21T12:25:16.493Z,24.08
2023-03-21T12:28:32.375Z,22.27
2023-03-21T12:31:14.456Z,19.20
2023-03-21T12:34:35.819Z,22.23
2023-03-21T12:37:27.243Z,18.58
2023-03-21T12:39:55.958Z,22.38
2023-03-21T12:42:35.202Z,21.88
2023-03-21T12:45:20.817Z,22.77
2023-03-21T12:47:50.962Z,21.50
2023-03-21T12:50:22.813Z,21.02
2023-03-21T12:52:52.525Z,18.85
2023-03-21T12:55:24.692Z,21.95
2023-03-21T12:58:18.349Z,19.88
2023-03-21T13:00:46.773Z,18.85
2023-03-21T13:03:30.657Z,18.98
2023-03-21T13:06:06.648Z,20.75
2023-03-21T13:08:41.971Z,18.52
2023-03-21T13:11:11.890Z,19.20
2023-03-21T13:14:10.346Z,18.67
2023-03-21T13:16:41.446Z,19.20
2023-03-21T13:19:28.751Z,17.65
2023-03-21T13:22:14.158Z,19.55
2023-03-21T13:24:49.140Z,19.98
2023-03-21T13:30:15.106Z,15.88
2023-03-21T13:32:43.114Z,19.95
2023-03-21T13:35:27.577Z,17.58
2023-03-21T13:38:18.461Z,17.55
2023-03-21T13:40:49.691Z,16.67
2023-03-21T13:43:52.251Z,17.58
2023-03-21T13:46:24.935Z,17.83
2023-03-21T13:49:26.656Z,17.45
2023-03-21T13:51:59.486Z,16.55
2023-03-21T13:54:38.982Z,18.17
2023-03-21T13:57:06.082Z,14.60
2023-03-21T13:59:40.499Z,17.40
2023-03-21T14:02:13.135Z,15.65
2023-03-21T14:04:42.883Z,16.25
2023-03-21T14:07:23.574Z,14.93
2023-03-21T14:12:27.081Z,15.52
2023-03-21T14:15:14.157Z,15.00
2023-03-21T14:17:59.121Z,16.33
2023-03-21T14:20:38.419Z,13.57
2023-03-21T14:23:06.648Z,13.55
2023-03-21T14:25:40.813Z,15.98
2023-03-21T14:28:19.913Z,15.52
2023-03-21T14:30:51.605Z,15.13
2023-03-21T14:33:51.848Z,16.42
2023-03-21T14:36:30.280Z,15.32
2023-03-21T14:39:16.348Z,13.80
2023-03-21T14:41:52.321Z,13.27
2023-03-21T14:44:28.947Z,16.20
2023-03-21T14:47:04.664Z,15.32
2023-03-21T14:49:33.250Z,14.48
2023-03-21T14:52:04.014Z,15.18
2023-03-21T14:54:31.864Z,13.43
2023-03-21T14:57:03.545Z,12.50
2023-03-21T14:59:33.359Z,13.65
2023-03-21T15:02:03.725Z,13.80
2023-03-21T15:04:31.876Z,13.68
2023-03-21T15:07:05.092Z,13.60
2023-03-21T15:09:34.476Z,12.63
2023-03-21T15:12:01.820Z,14.63
2023-03-21T15:14:33.602Z,13.35
2023-03-21T15:17:02.192Z,11.90
2023-03-21T15:19:31.434Z,12.68
2023-03-21T15:22:06.441Z,12.00
2023-03-21T15:24:36.693Z,12.13
2023-03-21T15:27:05.732Z,11.63
2023-03-21T15:29:33.629Z,15.30
2023-03-21T15:32:04.270Z,13.38
2023-03-21T15:34:31.706Z,14.07
2023-03-21T15:37:01.884Z,10.38
2023-03-21T15:39:29.184Z,9.73
2023-03-21T15:42:20.192Z,10.38
2023-03-21T15:44:51.442Z,10.20
2023-03-21T15:47:36.038Z,11.57
2023-03-21T15:50:08.091Z,11.55
2023-03-21T15:52:35.990Z,11.15
2023-03-21T15:55:03.024Z,10.65
2023-03-21T15:57:32.887Z,10.40
2023-03-21T16:00:06.528Z,9.32
2023-03-21T16:02:33.808Z,9.98
2023-03-21T16:05:03.774Z,8.55
2023-03-21T16:07:33.669Z,9.20
2023-03-21T16:10:02.195Z,10.02
2023-03-21T16:12:29.401Z,10.05
2023-03-21T16:14:56.539Z,7.97
2023-03-21T16:17:28.210Z,8.75
2023-03-21T16:19:55.303Z,9.57
2023-03-21T16:22:22.503Z,8.43
2023-03-21T16:24:49.410Z,8.85
2023-03-21T16:27:17.585Z,8.90
2023-03-21T16:29:44.375Z,9.18
2023-03-21T16:32:15.949Z,9.63
2023-03-21T16:34:42.893Z,9.18
2023-03-21T16:37:11.902Z,9.20
2023-03-21T16:39:38.925Z,9.20
2023-03-21T16:42:06.293Z,8.00
2023-03-21T16:44:33.898Z,8.02
2023-03-21T16:47:02.385Z,8.25
2023-03-21T16:49:29.403Z,9.23
2023-03-21T16:51:57.382Z,9.10
2023-03-21T16:54:24.314Z,8.68
2023-03-21T16:56:55.100Z,9.75
2023-03-21T16:59:21.956Z,7.18
2023-03-21T17:01:49.213Z,6.72
2023-03-21T17:04:16.942Z,7.00
2023-03-21T17:06:53.391Z,9.82
2023-03-21T17:09:24.272Z,8.55
2023-03-21T17:11:51.427Z,10.90
2023-03-21T17:14:18.813Z,10.13
2023-03-21T17:16:46.165Z,9.93
2023-03-21T17:19:17.047Z,12.52
2023-03-21T17:21:44.252Z,14.27
2023-03-21T17:24:11.094Z,15.77
2023-03-21T17:26:38.347Z,16.50
2023-03-21T17:29:05.275Z,15.75
2023-03-21T17:31:36.869Z,16.92
2023-03-21T17:34:04.546Z,17.77
2023-03-21T17:36:36.574Z,13.82
2023-03-21T17:39:05.877Z,17.40
2023-03-21T17:41:33.143Z,14.27
2023-03-21T17:43:59.925Z,13.88
2023-03-21T17:46:27.417Z,15.65
2023-03-21T17:48:54.987Z,17.42
2023-03-21T17:51:26.027Z,17.95
2023-03-21T17:53:52.875Z,16.00
2023-03-21T17:56:30.898Z,20.45
2023-03-21T17:59:01.839Z,20.50
2023-03-21T18:01:30.796Z,21.60
2023-03-21T18:03:58.141Z,21.63
2023-03-21T18:06:26.034Z,20.00
2023-03-21T18:08:53.297Z,22.63
2023-03-21T18:11:21.200Z,19.65
2023-03-21T18:13:48.690Z,17.33
2023-03-21T18:16:17.828Z,23.67
2023-03-21T18:18:46.616Z,20.73
2023-03-21T18:21:14.676Z,21.40
2023-03-21T18:23:41.550Z,21.00
2023-03-21T18:26:09.762Z,21.30
2023-03-21T18:28:39.619Z,26.05
2023-03-21T18:31:13.401Z,22.58
2023-03-21T18:33:45.222Z,26.23
2023-03-21T18:36:24.530Z,24.35
2023-03-21T18:38:52.183Z,28.15
2023-03-21T18:41:19.816Z,25.20
2023-03-21T18:44:09.674Z,30.08
2023-03-21T18:46:34.121Z,26.52
2023-03-21T18:49:19.882Z,25.10
2023-03-21T18:51:48.066Z,23.15
2023-03-21T18:54:14.930Z,27.42
2023-03-21T18:59:34.574Z,27.77
2023-03-21T19:02:02.606Z,25.90
2023-03-21T19:04:30.507Z,28.55
2023-03-21T19:06:58.552Z,30.05
2023-03-21T19:09:30.920Z,28.67
2023-03-21T19:11:59.014Z,29.23
2023-03-21T19:14:26.008Z,29.85
2023-03-21T19:17:56.458Z,32.00
2023-03-21T19:19:41.876Z,31.83
2023-03-21T19:22:08.977Z,33.25
2023-03-21T19:24:35.781Z,33.72
2023-03-21T19:27:02.921Z,32.15
2023-03-21T19:29:29.738Z,36.58
2023-03-21T19:31:57.221Z,39.65
2023-03-21T19:34:24.100Z,46.05
2023-03-21T19:36:52.484Z,54.17
2023-03-21T19:39:22.584Z,53.42
2023-03-21T19:41:55.384Z,52.30
2023-03-21T19:44:30.911Z,45.38
2023-03-21T19:46:58.027Z,46.58
2023-03-21T19:49:34.709Z,49.15
2023-03-21T19:52:13.419Z,47.70
2023-03-21T19:54:40.348Z,47.65
2023-03-21T19:57:09.705Z,51.67
2023-03-21T19:59:36.562Z,47.20
2023-03-21T20:02:25.017Z,51.53
2023-03-21T20:04:51.079Z,57.47
2023-03-21T20:07:18.247Z,58.85
2023-03-21T20:09:51.908Z,58.85
2023-03-21T20:12:19.705Z,64.10
2023-03-21T20:14:49.065Z,64.20
2023-03-21T20:17:16.898Z,61.63
2023-03-21T20:19:43.872Z,64.47
2023-03-21T20:22:21.957Z,62.63
2023-03-21T20:24:54.873Z,65.05
2023-03-21T20:27:25.166Z,65.10
2023-03-21T20:30:09.874Z,65.57
2023-03-21T20:32:38.774Z,77.32
2023-03-21T20:35:19.229Z,93.10
2023-03-21T20:37:52.862Z,98.72
2023-03-21T20:40:20.443Z,108.20
2023-03-21T20:42:48.923Z,102.35
2023-03-21T20:45:16.571Z,108.03
2023-03-21T20:47:43.909Z,101.82
2023-03-21T20:50:13.748Z,113.85
2023-03-21T20:53:06.324Z,118.13
2023-03-21T20:55:29.331Z,157.40
2023-03-21T20:57:56.402Z,158.98
2023-03-21T21:00:23.288Z,165.57
2023-03-21T21:02:50.553Z,166.90
2023-03-21T21:05:29.208Z,159.20
2023-03-21T21:07:57.225Z,164.13
2023-03-21T21:10:24.021Z,158.88
2023-03-21T21:12:51.256Z,152.07
2023-03-21T21:15:18.166Z,155.40
2023-03-21T21:20:33.725Z,141.32
2023-03-21T21:23:01.191Z,151.63
2023-03-21T21:25:29.378Z,157.23
2023-03-21T21:27:56.496Z,156.05
2023-03-21T21:30:23.482Z,156.65
2023-03-21T21:32:50.611Z,140.48
2023-03-21T21:35:19.618Z,140.30
2023-03-21T21:37:46.753Z,138.30
2023-03-21T21:40:20.460Z,140.85
2023-03-21T21:42:47.728Z,138.18
2023-03-21T21:45:14.658Z,132.07
2023-03-21T21:47:43.440Z,129.75
2023-03-21T21:50:10.541Z,135.60
2023-03-21T21:52:37.616Z,140.77
2023-03-21T21:55:06.454Z,135.35
2023-03-21T21:57:34.430Z,132.30
2023-03-21T22:00:06.955Z,136.15
2023-03-21T22:02:34.171Z,140.40
2023-03-21T22:05:01.140Z,145.38
2023-03-21T22:07:28.245Z,137.63
2023-03-21T22:09:54.994Z,142.15
2023-03-21T22:12:22.103Z,131.43
2023-03-21T22:14:48.868Z,135.38
2023-03-21T22:17:16.388Z,141.27
2023-03-21T22:19:46.266Z,143.45
2023-03-21T22:22:19.886Z,141.50
2023-03-21T22:24:46.664Z,138.35
2023-03-21T22:27:13.982Z,150.75
2023-03-21T22:29:40.712Z,160.90
2023-03-21T22:32:08.083Z,168.70
2023-03-21T22:34:34.991Z,176.48
2023-03-21T22:37:02.658Z,165.63
2023-03-21T22:39:29.557Z,166.60
2023-03-21T22:42:00.898Z,148.55
2023-03-21T22:44:34.441Z,146.00
2023-03-21T22:47:06.223Z,150.65
2023-03-21T22:49:33.030Z,146.63
2023-03-21T22:52:00.777Z,149.50
2023-03-21T22:54:27.578Z,151.82
2023-03-21T22:56:54.674Z,148.82
2023-03-21T22:59:21.523Z,149.88
2023-03-21T23:01:49.240Z,154.55
2023-03-21T23:04:16.356Z,162.77
2023-03-21T23:06:43.634Z,161.48
2023-03-21T23:09:10.591Z,151.13
2023-03-21T23:11:37.725Z,159.45
2023-03-21T23:14:07.981Z,153.40
2023-03-21T23:16:38.343Z,153.68
2023-03-21T23:19:05.775Z,146.20
2023-03-21T23:21:34.587Z,152.23
2023-03-21T23:24:01.367Z,149.02
2023-03-21T23:26:28.629Z,148.18
2023-03-21T23:28:55.453Z,143.52
2023-03-21T23:31:24.140Z,149.07
2023-03-21T23:33:51.191Z,145.50
2023-03-21T23:36:18.782Z,147.88
2023-03-21T23:38:45.814Z,142.63
2023-03-21T23:41:17.573Z,137.48
2023-03-21T23:43:44.508Z,139.93
2023-03-21T23:46:12.920Z,136.40
2023-03-21T23:48:41.268Z,131.00
2023-03-21T23:51:11.945Z,136.50
2023-03-21T23:53:39.342Z,137.65
2023-03-21T23:56:21.145Z,137.73
2023-03-21T23:58:48.207Z,136.68
